createdAt,value
2022-10-29T00:01:06.108Z,16.62
2022-10-29T00:04:09.024Z,16.57
2022-10-29T00:07:13.234Z,16.56
2022-10-29T00:10:15.909Z,16.55
2022-10-29T00:13:18.568Z,16.58
2022-10-29T00:16:23.622Z,16.53
2022-10-29T00:19:27.858Z,16.61
2022-10-29T00:22:32.631Z,16.57
2022-10-29T00:25:35.489Z,16.51
2022-10-29T00:28:38.269Z,16.41
2022-10-29T00:31:41.066Z,16.39
2022-10-29T00:34:43.948Z,16.39
2022-10-29T00:37:48.362Z,16.33
2022-10-29T00:40:51.287Z,16.31
2022-10-29T00:44:28.380Z,16.45
2022-10-29T00:47:34.778Z,16.45
2022-10-29T00:50:37.563Z,16.49
2022-10-29T00:53:45.468Z,16.53
2022-10-29T00:56:50.059Z,16.61
2022-10-29T00:59:53.852Z,16.64
2022-10-29T01:02:56.873Z,16.64
2022-10-29T01:06:01.192Z,16.60
2022-10-29T01:09:05.609Z,16.53
2022-10-29T01:12:26.806Z,16.56
2022-10-29T01:15:38.237Z,16.46
2022-10-29T01:18:50.006Z,16.42
2022-10-29T01:21:57.532Z,16.37
2022-10-29T01:25:26.903Z,16.36
2022-10-29T01:28:42.735Z,16.27
2022-10-29T01:31:50.951Z,16.25
2022-10-29T01:35:01.450Z,16.26
2022-10-29T01:38:13.292Z,16.21
2022-10-29T01:41:21.385Z,16.10
2022-10-29T01:44:34.282Z,16.09
2022-10-29T01:47:43.006Z,16.03
2022-10-29T01:50:50.771Z,16.01
2022-10-29T01:53:54.517Z,15.93
2022-10-29T01:56:58.433Z,16.09
2022-10-29T02:00:04.100Z,15.99
2022-10-29T02:03:22.649Z,15.90
2022-10-29T02:06:38.209Z,15.88
2022-10-29T02:09:53.215Z,15.85
2022-10-29T02:12:58.459Z,15.79
2022-10-29T02:16:06.753Z,15.72
2022-10-29T02:19:10.931Z,15.66
2022-10-29T02:22:13.518Z,15.63
2022-10-29T02:25:16.219Z,15.60
2022-10-29T02:31:26.922Z,15.53
2022-10-29T02:34:31.023Z,15.51
2022-10-29T02:37:34.968Z,15.54
2022-10-29T02:40:37.697Z,15.55
2022-10-29T02:43:40.419Z,15.52
2022-10-29T02:46:43.137Z,15.47
2022-10-29T02:49:47.814Z,15.41
2022-10-29T02:52:53.249Z,15.38
2022-10-29T02:55:56.114Z,15.35
2022-10-29T02:58:59.007Z,15.32
2022-10-29T03:02:01.889Z,15.30
2022-10-29T03:05:06.798Z,15.25
2022-10-29T03:08:09.831Z,15.20
2022-10-29T03:11:13.396Z,15.18
2022-10-29T03:14:16.734Z,15.17
2022-10-29T03:17:19.820Z,15.16
2022-10-29T03:20:24.547Z,15.18
2022-10-29T03:23:27.765Z,15.16
2022-10-29T03:26:30.761Z,15.15
2022-10-29T03:29:33.627Z,15.11
2022-10-29T03:32:36.470Z,15.07
2022-10-29T03:35:43.939Z,15.02
2022-10-29T03:38:47.033Z,14.98
2022-10-29T03:41:49.704Z,14.94
2022-10-29T03:44:52.968Z,14.93
2022-10-29T03:47:56.222Z,14.90
2022-10-29T03:51:02.896Z,14.84
2022-10-29T03:54:05.734Z,14.83
2022-10-29T03:57:09.091Z,14.80
2022-10-29T04:00:12.813Z,14.79
2022-10-29T04:03:15.373Z,14.79
2022-10-29T04:06:19.908Z,14.81
2022-10-29T04:09:22.525Z,14.79
2022-10-29T04:12:25.228Z,14.74
2022-10-29T04:15:27.926Z,14.72
2022-10-29T04:18:30.625Z,14.69
2022-10-29T04:31:42.602Z,14.61
2022-10-29T04:34:45.141Z,14.60
2022-10-29T04:37:49.167Z,14.60
2022-10-29T04:40:51.766Z,14.57
2022-10-29T04:43:54.443Z,14.45
2022-10-29T04:46:57.108Z,14.46
2022-10-29T04:49:59.737Z,14.47
2022-10-29T04:53:05.198Z,14.51
2022-10-29T04:56:08.161Z,14.53
2022-10-29T04:59:10.834Z,14.52
2022-10-29T05:02:13.565Z,14.52
2022-10-29T05:05:16.273Z,14.49
2022-10-29T05:08:21.618Z,14.48
2022-10-29T05:11:24.181Z,14.48
2022-10-29T05:14:26.910Z,14.48
2022-10-29T05:17:29.626Z,14.50
2022-10-29T05:20:32.481Z,14.47
2022-10-29T05:23:36.484Z,14.48
2022-10-29T05:26:39.108Z,14.48
2022-10-29T05:29:41.883Z,14.44
2022-10-29T05:32:44.705Z,14.45
2022-10-29T05:35:47.547Z,14.44
2022-10-29T05:38:51.580Z,14.40
2022-10-29T05:41:54.153Z,14.38
2022-10-29T05:44:59.073Z,14.40
2022-10-29T05:48:04.095Z,14.35
2022-10-29T05:51:06.779Z,14.35
2022-10-29T05:54:10.809Z,14.36
2022-10-29T05:57:13.363Z,14.36
2022-10-29T06:00:16.574Z,14.35
2022-10-29T06:03:23.148Z,14.33
2022-10-29T06:06:25.836Z,14.31
2022-10-29T06:09:29.903Z,14.30
2022-10-29T06:12:34.889Z,14.34
2022-10-29T06:15:37.765Z,14.29
2022-10-29T06:18:40.521Z,14.31
2022-10-29T06:21:43.118Z,14.34
2022-10-29T06:24:47.156Z,14.37
2022-10-29T06:27:49.699Z,14.43
2022-10-29T06:30:52.602Z,14.49
2022-10-29T06:33:56.268Z,14.55
2022-10-29T06:36:58.805Z,14.56
2022-10-29T06:40:02.896Z,14.61
2022-10-29T06:43:07.322Z,14.67
2022-10-29T06:46:10.169Z,14.73
2022-10-29T06:49:12.748Z,14.81
2022-10-29T06:52:15.307Z,14.85
2022-10-29T06:55:19.451Z,14.93
2022-10-29T06:58:22.210Z,14.98
2022-10-29T07:01:30.732Z,15.04
2022-10-29T07:04:34.550Z,15.11
2022-10-29T07:07:37.113Z,15.17
2022-10-29T07:10:41.146Z,15.28
2022-10-29T07:13:43.751Z,15.42
2022-10-29T07:16:46.438Z,15.51
2022-10-29T07:19:49.142Z,15.55
2022-10-29T07:22:51.713Z,15.60
2022-10-29T07:25:55.804Z,15.60
2022-10-29T07:28:58.572Z,15.64
2022-10-29T07:32:01.288Z,15.74
2022-10-29T07:35:04.025Z,15.84
2022-10-29T07:38:10.888Z,15.94
2022-10-29T07:41:15.650Z,16.02
2022-10-29T07:44:18.328Z,16.13
2022-10-29T07:47:21.075Z,16.22
2022-10-29T07:50:23.821Z,16.32
2022-10-29T07:53:26.681Z,16.40
2022-10-29T07:56:30.734Z,16.49
2022-10-29T07:59:33.292Z,16.59
2022-10-29T08:02:36.032Z,16.59
2022-10-29T08:05:39.037Z,16.69
2022-10-29T08:08:41.585Z,16.80
2022-10-29T08:11:49.020Z,16.97
2022-10-29T08:14:58.195Z,17.04
2022-10-29T08:18:01.255Z,17.13
2022-10-29T08:21:05.848Z,17.16
2022-10-29T08:24:08.554Z,17.23
2022-10-29T08:27:12.606Z,17.26
2022-10-29T08:30:15.277Z,17.50
2022-10-29T08:33:18.183Z,17.51
2022-10-29T08:36:20.899Z,17.56
2022-10-29T08:39:23.562Z,17.71
2022-10-29T08:42:40.305Z,17.87
2022-10-29T08:45:47.515Z,17.90
2022-10-29T08:48:55.443Z,18.10
2022-10-29T08:52:04.207Z,18.19
2022-10-29T08:55:14.238Z,18.26
2022-10-29T08:58:28.112Z,18.47
2022-10-29T09:01:31.562Z,18.32
2022-10-29T09:04:35.831Z,18.31
2022-10-29T09:08:02.085Z,18.43
2022-10-29T09:11:26.372Z,18.53
2022-10-29T09:14:46.459Z,18.62
2022-10-29T09:18:05.725Z,18.77
2022-10-29T09:21:18.482Z,18.93
2022-10-29T09:24:31.307Z,18.97
2022-10-29T09:27:46.080Z,18.96
2022-10-29T09:30:59.942Z,18.86
2022-10-29T09:34:11.027Z,18.85
2022-10-29T09:37:18.853Z,18.97
2022-10-29T09:40:32.143Z,19.17
2022-10-29T09:43:39.935Z,19.37
2022-10-29T09:46:50.964Z,19.54
2022-10-29T09:50:12.743Z,19.71
2022-10-29T09:53:15.736Z,19.50
2022-10-29T09:56:18.472Z,19.61
2022-10-29T09:59:29.493Z,19.57
2022-10-29T10:02:37.495Z,19.45
2022-10-29T10:05:58.461Z,19.28
2022-10-29T10:09:02.770Z,19.36
2022-10-29T10:12:08.788Z,19.42
2022-10-29T10:15:21.018Z,19.42
2022-10-29T10:18:27.061Z,19.52
2022-10-29T10:21:31.931Z,20.14
2022-10-29T10:24:36.122Z,20.90
2022-10-29T10:27:38.658Z,21.37
2022-10-29T10:30:43.205Z,21.72
2022-10-29T10:33:51.043Z,21.84
2022-10-29T10:36:56.256Z,21.77
2022-10-29T10:40:02.624Z,22.00
2022-10-29T10:43:08.240Z,21.87
2022-10-29T10:46:17.205Z,22.12
2022-10-29T10:49:30.184Z,21.74
2022-10-29T10:52:33.505Z,21.47
2022-10-29T10:55:38.721Z,21.55
2022-10-29T10:58:48.248Z,21.85
2022-10-29T11:01:53.543Z,21.67
2022-10-29T11:05:05.111Z,21.35
2022-10-29T11:08:17.392Z,21.60
2022-10-29T11:11:27.457Z,21.60
2022-10-29T11:15:14.196Z,21.70
2022-10-29T11:18:21.916Z,22.17
2022-10-29T11:21:31.738Z,22.57
2022-10-29T11:24:45.097Z,22.55
2022-10-29T11:27:52.958Z,22.36
2022-10-29T11:31:01.115Z,22.81
2022-10-29T11:34:07.729Z,22.86
2022-10-29T11:37:19.418Z,22.77
2022-10-29T11:40:25.118Z,22.67
2022-10-29T11:43:27.694Z,22.48
2022-10-29T11:46:40.403Z,22.28
2022-10-29T11:49:58.184Z,22.05
2022-10-29T11:53:17.078Z,21.86
2022-10-29T11:56:31.164Z,21.59
2022-10-29T11:59:48.142Z,21.64
2022-10-29T12:03:16.908Z,21.67
2022-10-29T12:06:26.393Z,21.69
2022-10-29T12:09:46.518Z,21.70
2022-10-29T12:12:53.497Z,21.67
2022-10-29T12:16:08.744Z,21.78
2022-10-29T12:19:25.815Z,21.77
2022-10-29T12:22:38.287Z,22.00
2022-10-29T12:25:52.836Z,22.07
2022-10-29T12:29:03.976Z,21.87
2022-10-29T12:32:12.912Z,21.98
2022-10-29T12:35:21.256Z,21.87
2022-10-29T12:38:39.119Z,21.78
2022-10-29T12:41:47.103Z,21.77
2022-10-29T12:45:01.661Z,21.76
2022-10-29T12:48:11.951Z,21.67
2022-10-29T12:51:21.426Z,21.74
2022-10-29T12:54:36.818Z,21.71
2022-10-29T12:57:40.867Z,21.75
2022-10-29T13:00:48.723Z,21.89
2022-10-29T13:04:02.205Z,21.76
2022-10-29T13:07:07.199Z,21.74
2022-10-29T13:10:43.109Z,21.44
2022-10-29T13:14:00.155Z,21.34
2022-10-29T13:17:05.253Z,21.61
2022-10-29T13:20:21.680Z,21.70
2022-10-29T13:23:35.106Z,21.62
2022-10-29T13:26:58.778Z,21.48
2022-10-29T13:30:25.526Z,21.49
2022-10-29T13:33:52.391Z,21.51
2022-10-29T13:36:54.975Z,21.37
2022-10-29T13:40:31.011Z,21.37
2022-10-29T13:43:34.516Z,21.42
2022-10-29T13:46:48.761Z,21.48
2022-10-29T13:49:52.027Z,21.45
2022-10-29T13:52:59.688Z,21.40
2022-10-29T13:56:03.209Z,21.43
2022-10-29T13:59:12.212Z,21.51
2022-10-29T14:02:24.793Z,21.49
2022-10-29T14:05:32.563Z,21.58
2022-10-29T14:08:41.736Z,21.54
2022-10-29T14:11:49.507Z,21.51
2022-10-29T14:14:59.095Z,21.51
2022-10-29T14:18:24.864Z,21.55
2022-10-29T14:21:30.118Z,21.51
2022-10-29T14:24:38.618Z,21.42
2022-10-29T14:27:41.495Z,21.37
2022-10-29T14:30:44.486Z,21.10
2022-10-29T14:33:55.364Z,21.05
2022-10-29T14:37:03.269Z,21.00
2022-10-29T14:40:16.210Z,20.92
2022-10-29T14:43:24.953Z,20.92
2022-10-29T14:46:30.035Z,20.94
2022-10-29T14:49:36.262Z,20.86
2022-10-29T14:52:42.302Z,20.83
2022-10-29T14:55:49.217Z,20.85
2022-10-29T14:58:51.821Z,20.82
2022-10-29T15:02:05.609Z,20.82
2022-10-29T15:05:26.888Z,20.78
2022-10-29T15:08:34.248Z,20.72
2022-10-29T15:11:39.164Z,20.69
2022-10-29T15:14:48.164Z,20.63
2022-10-29T15:17:53.295Z,20.58
2022-10-29T15:20:57.854Z,20.52
2022-10-29T15:24:06.492Z,20.46
2022-10-29T15:27:14.827Z,20.41
2022-10-29T15:30:20.338Z,20.31
2022-10-29T15:33:27.575Z,20.23
2022-10-29T15:40:05.999Z,20.03
2022-10-29T15:43:30.172Z,19.96
2022-10-29T15:46:45.267Z,19.87
2022-10-29T15:49:48.189Z,19.78
2022-10-29T15:52:56.949Z,19.75
2022-10-29T15:56:00.864Z,19.70
2022-10-29T15:59:03.645Z,19.66
2022-10-29T16:02:17.502Z,19.63
2022-10-29T16:05:20.396Z,19.56
2022-10-29T16:08:27.597Z,19.54
2022-10-29T16:11:31.639Z,19.51
2022-10-29T16:14:34.388Z,19.45
2022-10-29T16:17:37.202Z,19.43
2022-10-29T16:20:39.823Z,19.42
2022-10-29T16:23:43.004Z,19.36
2022-10-29T16:26:46.993Z,19.31
2022-10-29T16:29:50.106Z,19.25
2022-10-29T16:32:53.362Z,19.22
2022-10-29T16:35:57.501Z,19.17
2022-10-29T16:39:03.099Z,19.11
2022-10-29T16:42:08.590Z,19.04
2022-10-29T16:45:16.690Z,18.97
2022-10-29T16:48:20.551Z,18.92
2022-10-29T16:51:23.263Z,18.88
2022-10-29T16:54:26.266Z,18.83
2022-10-29T16:57:30.726Z,18.75
2022-10-29T17:00:36.922Z,18.67
2022-10-29T17:03:40.181Z,18.65
2022-10-29T17:06:42.855Z,18.62
2022-10-29T17:09:45.515Z,18.61
2022-10-29T17:12:50.126Z,18.61
2022-10-29T17:15:52.789Z,18.57
2022-10-29T17:18:56.546Z,18.54
2022-10-29T17:21:59.595Z,18.53
2022-10-29T17:25:02.348Z,18.49
2022-10-29T17:28:06.286Z,18.45
2022-10-29T17:31:10.250Z,18.43
2022-10-29T17:34:12.799Z,18.39
2022-10-29T17:37:15.403Z,18.43
2022-10-29T17:40:18.129Z,18.33
2022-10-29T17:43:22.185Z,18.27
2022-10-29T17:46:24.794Z,18.22
2022-10-29T17:49:27.611Z,18.21
2022-10-29T17:52:30.189Z,18.17
2022-10-29T17:55:32.875Z,18.14
2022-10-29T17:58:38.973Z,18.11
2022-10-29T18:01:41.791Z,18.05
2022-10-29T18:04:46.556Z,18.02
2022-10-29T18:07:49.232Z,17.98
2022-10-29T18:10:53.505Z,17.94
2022-10-29T18:13:58.510Z,17.87
2022-10-29T18:17:02.785Z,17.84
2022-10-29T18:20:06.643Z,17.81
2022-10-29T18:23:09.315Z,17.76
2022-10-29T18:26:22.537Z,17.74
2022-10-29T18:29:26.470Z,17.69
2022-10-29T18:32:29.038Z,17.66
2022-10-29T18:35:31.701Z,17.60
2022-10-29T18:38:34.565Z,17.54
2022-10-29T18:41:37.111Z,17.53
2022-10-29T18:44:41.094Z,17.53
2022-10-29T18:47:43.644Z,17.50
2022-10-29T18:50:46.224Z,17.49
2022-10-29T18:53:49.234Z,17.44
2022-10-29T18:56:52.299Z,17.38
2022-10-29T18:59:56.337Z,17.36
2022-10-29T19:02:59.251Z,17.34
2022-10-29T19:06:03.659Z,17.32
2022-10-29T19:09:08.805Z,17.31
2022-10-29T19:12:12.973Z,17.26
2022-10-29T19:15:17.127Z,17.21
2022-10-29T19:18:19.962Z,17.22
2022-10-29T19:21:23.646Z,17.19
2022-10-29T19:24:26.648Z,17.14
2022-10-29T19:27:29.400Z,17.13
2022-10-29T19:30:33.941Z,17.10
2022-10-29T19:33:37.291Z,17.08
2022-10-29T19:36:40.646Z,17.00
2022-10-29T19:39:43.412Z,16.98
2022-10-29T19:42:48.451Z,16.96
2022-10-29T19:45:57.742Z,16.92
2022-10-29T19:49:00.683Z,16.88
2022-10-29T19:52:03.377Z,16.88
2022-10-29T19:55:07.031Z,16.86
2022-10-29T19:58:10.752Z,16.82
2022-10-29T20:01:15.995Z,16.77
2022-10-29T20:04:18.965Z,16.72
2022-10-29T20:07:21.773Z,16.70
2022-10-29T20:10:25.500Z,16.65
2022-10-29T20:13:28.521Z,16.64
2022-10-29T20:16:35.605Z,16.65
2022-10-29T20:19:40.277Z,16.67
2022-10-29T20:22:48.160Z,16.69
2022-10-29T20:25:51.718Z,16.64
2022-10-29T20:29:01.301Z,16.63
2022-10-29T20:32:06.026Z,16.61
2022-10-29T20:35:12.237Z,16.59
2022-10-29T20:38:15.000Z,16.58
2022-10-29T20:41:17.838Z,16.52
2022-10-29T20:44:20.542Z,16.48
2022-10-29T20:47:25.880Z,16.48
2022-10-29T20:50:28.799Z,16.46
2022-10-29T20:53:31.391Z,16.47
2022-10-29T20:56:34.199Z,16.48
2022-10-29T20:59:37.291Z,16.46
2022-10-29T21:02:41.806Z,16.44
2022-10-29T21:05:45.388Z,16.42
2022-10-29T21:08:48.882Z,16.39
2022-10-29T21:11:52.800Z,16.41
2022-10-29T21:14:55.592Z,16.43
2022-10-29T21:18:05.144Z,16.44
2022-10-29T21:21:10.607Z,16.42
2022-10-29T21:24:13.194Z,16.39
2022-10-29T21:27:18.509Z,16.40
2022-10-29T21:30:22.750Z,16.41
2022-10-29T21:33:26.844Z,16.39
2022-10-29T21:36:29.634Z,16.35
2022-10-29T21:39:33.280Z,16.33
2022-10-29T21:42:36.549Z,16.29
2022-10-29T21:45:39.520Z,16.28
2022-10-29T21:48:43.790Z,16.25
2022-10-29T21:51:48.210Z,16.22
2022-10-29T21:54:51.853Z,16.17
2022-10-29T21:57:54.659Z,16.16
2022-10-29T22:01:07.359Z,16.18
2022-10-29T22:04:11.463Z,16.17
2022-10-29T22:07:14.363Z,16.16
2022-10-29T22:10:17.224Z,16.15
2022-10-29T22:13:20.230Z,16.18
2022-10-29T22:16:23.540Z,16.19
2022-10-29T22:19:27.927Z,16.19
2022-10-29T22:22:30.651Z,16.16
2022-10-29T22:25:33.782Z,16.15
2022-10-29T22:28:36.475Z,16.16
2022-10-29T22:31:39.467Z,16.17
2022-10-29T22:34:43.374Z,16.16
2022-10-29T22:37:46.701Z,16.13
2022-10-29T22:40:49.389Z,16.14
2022-10-29T22:43:52.831Z,16.14
2022-10-29T22:46:55.498Z,16.10
2022-10-29T22:50:03.115Z,16.09
2022-10-29T22:53:09.016Z,16.12
2022-10-29T22:56:15.359Z,16.12
2022-10-29T22:59:18.434Z,16.12
2022-10-29T23:02:21.639Z,16.12
2022-10-29T23:05:25.928Z,16.11
2022-10-29T23:08:29.319Z,16.08
2022-10-29T23:11:35.188Z,16.05
2022-10-29T23:14:38.501Z,15.99
2022-10-29T23:17:41.479Z,15.93
2022-10-29T23:20:46.084Z,15.89
2022-10-29T23:23:49.906Z,15.84
2022-10-29T23:26:52.559Z,15.81
2022-10-29T23:29:55.391Z,15.79
2022-10-29T23:32:58.364Z,15.79
2022-10-29T23:36:07.806Z,15.81
2022-10-29T23:39:10.609Z,15.78
2022-10-29T23:42:13.349Z,15.73
2022-10-29T23:45:16.921Z,15.72
2022-10-29T23:48:20.434Z,15.70
2022-10-29T23:51:24.373Z,15.69
2022-10-29T23:54:27.155Z,15.68
2022-10-29T23:57:29.685Z,15.66
